Time;durP1;ratioP1;P1;durP2;ratioP2;P2;SDS_P1;SDS_P2;PMS_P1;PMS_P2;Temp;Humidity;BMP_temperature;BMP_pressure;BME280_temperature;BME280_humidity;BME280_pressure;Samples;Min_cycle;Max_cycle;Signal;HPM_P1;HPM_P2
2020/12/18 00:00:51;;;;;;;13.03;7.00;;;4.60;99.90;;;;;;4997121;28;20743;-76
2020/12/18 00:03:17;;;;;;;8.80;5.27;;;4.60;99.90;;;;;;4996889;28;20172;-76
2020/12/18 00:05:42;;;;;;;8.77;5.07;;;4.60;99.90;;;;;;4997058;28;20172;-76
2020/12/18 00:08:09;;;;;;;10.60;4.70;;;4.60;99.90;;;;;;4997391;28;20175;-75
2020/12/18 00:10:35;;;;;;;9.30;4.88;;;4.50;99.90;;;;;;4997172;28;20537;-76
2020/12/18 00:13:00;;;;;;;8.80;4.82;;;4.50;99.90;;;;;;4996706;28;20176;-77
2020/12/18 00:15:27;;;;;;;12.37;5.50;;;4.50;99.90;;;;;;4995724;28;20226;-76
2020/12/18 00:17:52;;;;;;;14.32;4.45;;;4.50;99.90;;;;;;4996888;28;20956;-76
2020/12/18 00:20:18;;;;;;;10.40;5.30;;;4.50;99.90;;;;;;4996853;28;20186;-76
2020/12/18 00:22:45;;;;;;;8.97;4.53;;;4.50;99.90;;;;;;4996552;28;20782;-77
2020/12/18 00:25:11;;;;;;;9.23;5.18;;;4.40;99.90;;;;;;4996823;28;20545;-77
2020/12/18 00:27:43;;;;;;;6.90;5.13;;;4.40;99.90;;;;;;4996468;28;20176;-77
2020/12/18 00:30:10;;;;;;;9.48;5.15;;;4.40;99.90;;;;;;4996614;28;20171;-77
2020/12/18 00:32:37;;;;;;;12.07;5.22;;;4.40;99.90;;;;;;4996202;28;20184;-76
2020/12/18 00:35:05;;;;;;;10.95;5.70;;;4.40;99.90;;;;;;4996470;28;20209;-77
2020/12/18 00:37:30;;;;;;;7.30;4.55;;;4.40;99.90;;;;;;4996481;28;20171;-77
2020/12/18 00:39:56;;;;;;;5.83;5.07;;;4.30;99.90;;;;;;4996355;28;20172;-77
2020/12/18 00:42:22;;;;;;;7.10;5.13;;;4.30;99.90;;;;;;4996208;28;20286;-78
2020/12/18 00:44:47;;;;;;;6.30;4.70;;;4.30;99.90;;;;;;4996476;28;20178;-76
2020/12/18 00:47:13;;;;;;;5.50;4.00;;;4.30;99.90;;;;;;4996593;28;20635;-76
2020/12/18 00:49:40;;;;;;;7.70;4.60;;;4.20;99.90;;;;;;4995681;28;20191;-77
2020/12/18 00:52:06;;;;;;;9.20;4.70;;;4.20;99.90;;;;;;4995828;28;20531;-77
2020/12/18 00:54:31;;;;;;;7.93;4.93;;;4.20;99.90;;;;;;4996444;28;20211;-78
2020/12/18 00:56:57;;;;;;;5.00;4.20;;;4.20;99.90;;;;;;4996345;28;20620;-78
2020/12/18 00:59:22;;;;;;;6.53;4.00;;;4.20;99.90;;;;;;4996225;28;20172;-77
2020/12/18 01:01:48;;;;;;;7.53;4.90;;;4.20;99.90;;;;;;4996094;28;20191;-77
2020/12/18 01:04:14;;;;;;;6.00;4.60;;;4.10;99.90;;;;;;4995914;28;20648;-76
2020/12/18 01:06:39;;;;;;;5.67;4.40;;;4.20;99.90;;;;;;4996182;28;20224;-77
2020/12/18 01:09:05;;;;;;;7.63;5.00;;;4.20;99.90;;;;;;4996016;28;20210;-76
2020/12/18 01:11:30;;;;;;;5.93;3.80;;;4.20;99.90;;;;;;4995916;28;20209;-77
2020/12/18 01:13:56;;;;;;;9.53;4.20;;;4.30;99.90;;;;;;4995502;28;20258;-76
2020/12/18 01:16:21;;;;;;;8.00;4.67;;;4.30;99.90;;;;;;4995809;28;20526;-77
2020/12/18 01:18:47;;;;;;;5.40;3.30;;;4.30;99.90;;;;;;4995744;28;20177;-76
2020/12/18 01:21:12;;;;;;;9.60;4.43;;;4.30;99.90;;;;;;4995867;28;20200;-76
2020/12/18 01:23:38;;;;;;;4.83;3.73;;;4.40;99.90;;;;;;4995292;28;20174;-77
2020/12/18 01:26:04;;;;;;;7.33;3.30;;;4.40;99.90;;;;;;4995549;28;20177;-77
2020/12/18 01:28:29;;;;;;;6.70;3.63;;;4.40;99.90;;;;;;4995556;28;20244;-77
2020/12/18 01:30:56;;;;;;;9.47;3.70;;;4.40;99.90;;;;;;4995589;28;20219;-77
2020/12/18 01:33:21;;;;;;;5.93;3.85;;;4.40;99.90;;;;;;4995125;28;20207;-76
2020/12/18 01:35:47;;;;;;;10.90;3.80;;;4.30;99.90;;;;;;4995330;28;20242;-76
2020/12/18 01:38:13;;;;;;;6.37;3.60;;;4.30;99.90;;;;;;4995237;28;20179;-76
2020/12/18 01:40:38;;;;;;;11.57;3.70;;;4.30;99.90;;;;;;4994044;28;20579;-77
2020/12/18 01:43:04;;;;;;;6.40;3.40;;;4.30;99.90;;;;;;4995192;28;20562;-78
2020/12/18 01:45:29;;;;;;;5.63;3.70;;;4.30;99.90;;;;;;4995099;28;20644;-78
2020/12/18 01:47:55;;;;;;;6.83;3.60;;;4.30;99.90;;;;;;4995525;28;20182;-75
2020/12/18 01:50:21;;;;;;;9.00;3.97;;;4.30;99.90;;;;;;4995230;28;20191;-77
2020/12/18 01:52:47;;;;;;;5.55;3.47;;;4.30;99.90;;;;;;4994880;28;20556;-77
2020/12/18 01:55:13;;;;;;;6.70;3.77;;;4.30;99.90;;;;;;4995103;28;20203;-76
2020/12/18 01:57:40;;;;;;;6.43;4.13;;;4.40;99.90;;;;;;4995160;28;20186;-76
2020/12/18 02:00:08;;;;;;;6.18;3.50;;;4.40;99.90;;;;;;4994852;28;20186;-78
2020/12/18 02:02:34;;;;;;;8.73;3.85;;;4.40;99.90;;;;;;4993790;28;20176;-76
2020/12/18 02:04:59;;;;;;;13.53;5.33;;;4.40;99.90;;;;;;4994945;28;20175;-77
2020/12/18 02:07:28;;;;;;;4.50;3.43;;;4.40;99.90;;;;;;4994955;28;20194;-77
2020/12/18 02:09:54;;;;;;;8.40;4.03;;;4.50;99.90;;;;;;4994802;28;20203;-78
2020/12/18 02:12:20;;;;;;;7.10;4.47;;;4.50;99.90;;;;;;4994335;28;20666;-76
2020/12/18 02:14:50;;;;;;;8.13;3.35;;;4.50;99.90;;;;;;4993549;28;20501;-77
2020/12/18 02:17:19;;;;;;;10.40;3.25;;;4.50;99.90;;;;;;4994866;28;20184;-77
2020/12/18 02:19:53;;;;;;;6.20;3.40;;;4.50;99.90;;;;;;4994711;28;20262;-77
2020/12/18 02:22:21;;;;;;;7.47;3.90;;;4.50;99.90;;;;;;4994285;28;20198;-77
2020/12/18 02:24:57;;;;;;;5.35;3.42;;;4.50;99.90;;;;;;4994653;28;20234;-76
2020/12/18 02:27:22;;;;;;;6.72;3.80;;;4.60;99.90;;;;;;4994623;28;20258;-76
2020/12/18 02:29:48;;;;;;;6.33;3.50;;;4.60;99.90;;;;;;4994490;28;20266;-76
2020/12/18 02:32:14;;;;;;;9.73;3.73;;;4.60;99.90;;;;;;4994070;28;20206;-77
2020/12/18 02:34:39;;;;;;;6.93;3.47;;;4.60;99.90;;;;;;4994153;28;20293;-76
2020/12/18 02:37:05;;;;;;;8.53;4.27;;;4.70;99.90;;;;;;4994331;28;20178;-76
2020/12/18 02:39:31;;;;;;;11.47;3.90;;;4.70;99.90;;;;;;4994314;28;20636;-76
2020/12/18 02:41:56;;;;;;;7.00;3.77;;;4.60;99.90;;;;;;4994201;28;20222;-76
2020/12/18 02:44:23;;;;;;;6.47;3.47;;;4.60;99.90;;;;;;4994303;28;20186;-77
2020/12/18 02:46:48;;;;;;;7.00;3.63;;;4.60;99.90;;;;;;4994074;28;20250;-76
2020/12/18 02:49:14;;;;;;;7.57;3.67;;;4.70;99.90;;;;;;4994135;28;20290;-77
2020/12/18 02:51:42;;;;;;;5.80;3.73;;;4.70;99.90;;;;;;4992871;28;20195;-77
2020/12/18 02:54:08;;;;;;;5.75;3.30;;;4.70;99.90;;;;;;4993758;28;20414;-77
2020/12/18 02:56:33;;;;;;;10.38;4.85;;;4.70;99.90;;;;;;4994042;28;20178;-76
2020/12/18 02:58:59;;;;;;;6.43;3.33;;;4.80;99.90;;;;;;4993893;28;20254;-76
2020/12/18 03:01:25;;;;;;;6.03;4.00;;;4.70;99.90;;;;;;4993950;28;20607;-77
2020/12/18 03:03:50;;;;;;;9.57;3.80;;;4.60;99.90;;;;;;4992421;28;20190;-76
2020/12/18 03:06:16;;;;;;;7.30;3.77;;;4.60;99.90;;;;;;4994058;28;20542;-76
2020/12/18 03:08:41;;;;;;;7.20;4.00;;;4.60;99.90;;;;;;4993852;28;20216;-76
2020/12/18 03:11:07;;;;;;;7.07;4.17;;;4.70;99.90;;;;;;4993763;28;20443;-77
2020/12/18 03:13:33;;;;;;;8.32;4.25;;;4.70;99.90;;;;;;4993397;28;20190;-76
2020/12/18 03:15:59;;;;;;;6.47;4.40;;;4.60;99.90;;;;;;4992658;28;20217;-76
2020/12/18 03:18:25;;;;;;;5.23;4.13;;;4.70;99.90;;;;;;4993920;28;20267;-76
2020/12/18 03:20:50;;;;;;;8.25;4.40;;;4.80;99.90;;;;;;4993567;28;20441;-76
2020/12/18 03:23:16;;;;;;;6.13;4.00;;;4.70;99.90;;;;;;4993328;28;20178;-77
2020/12/18 03:25:42;;;;;;;9.87;4.30;;;4.70;99.90;;;;;;4993780;28;20175;-76
2020/12/18 03:28:08;;;;;;;9.15;3.92;;;4.70;99.90;;;;;;4993806;28;20182;-75
2020/12/18 03:30:34;;;;;;;8.47;4.50;;;4.60;99.90;;;;;;4993721;28;20199;-75
2020/12/18 03:33:00;;;;;;;6.90;4.30;;;4.60;99.90;;;;;;4993187;28;20429;-77
2020/12/18 03:35:27;;;;;;;6.90;4.17;;;4.70;99.90;;;;;;4993382;28;20209;-76
2020/12/18 03:37:53;;;;;;;11.40;4.80;;;4.70;99.90;;;;;;4993629;28;20579;-76
2020/12/18 03:40:19;;;;;;;9.10;4.53;;;4.70;99.90;;;;;;4993492;28;20643;-76
2020/12/18 03:42:45;;;;;;;11.77;3.92;;;4.70;99.90;;;;;;4993203;28;20172;-76
2020/12/18 03:45:11;;;;;;;8.20;5.30;;;4.70;99.90;;;;;;4993421;28;20176;-75
2020/12/18 03:47:36;;;;;;;5.20;4.40;;;4.70;99.90;;;;;;4993439;28;20187;-77
2020/12/18 03:50:04;;;;;;;8.27;5.03;;;4.70;99.90;;;;;;4993636;28;20192;-76
2020/12/18 03:52:31;;;;;;;9.32;4.75;;;4.70;99.90;;;;;;4993182;28;20246;-76
2020/12/18 03:54:57;;;;;;;6.43;3.73;;;4.70;99.90;;;;;;4993438;28;20283;-76
2020/12/18 03:57:23;;;;;;;9.40;4.80;;;4.70;99.90;;;;;;4993479;28;20183;-76
2020/12/18 03:59:48;;;;;;;9.30;4.97;;;4.70;99.90;;;;;;4993547;28;20211;-76
2020/12/18 04:02:14;;;;;;;10.30;4.87;;;4.70;99.90;;;;;;4993054;28;20829;-76
2020/12/18 04:04:39;;;;;;;8.70;4.17;;;4.80;99.90;;;;;;4993455;28;20178;-76
2020/12/18 04:07:05;;;;;;;8.80;4.33;;;4.90;99.90;;;;;;4993441;28;20186;-76
2020/12/18 04:09:31;;;;;;;6.10;4.00;;;4.90;99.90;;;;;;4993296;28;20648;-76
2020/12/18 04:11:56;;;;;;;6.53;4.87;;;4.90;99.90;;;;;;4992860;28;20438;-75
2020/12/18 04:14:22;;;;;;;8.10;4.20;;;4.90;99.90;;;;;;4993225;28;20205;-75
2020/12/18 04:16:47;;;;;;;8.03;4.30;;;5.00;99.90;;;;;;4993539;28;20185;-76
2020/12/18 04:19:13;;;;;;;6.37;3.70;;;5.00;99.90;;;;;;4993373;28;20214;-76
2020/12/18 04:21:39;;;;;;;9.77;4.23;;;5.00;99.90;;;;;;4991926;28;20286;-75
2020/12/18 04:24:04;;;;;;;8.50;4.40;;;5.00;99.90;;;;;;4993235;28;20709;-76
2020/12/18 04:26:30;;;;;;;9.97;4.20;;;5.00;99.90;;;;;;4996873;28;20176;-76
2020/12/18 04:28:56;;;;;;;5.40;4.30;;;5.00;99.90;;;;;;4996752;28;20517;-76
2020/12/18 04:31:22;;;;;;;6.30;3.70;;;5.10;99.90;;;;;;4996532;28;20287;-76
2020/12/18 04:33:48;;;;;;;5.33;3.80;;;5.10;99.90;;;;;;4996234;28;20457;-75
2020/12/18 04:36:13;;;;;;;7.00;3.97;;;5.00;99.90;;;;;;4996538;28;20473;-75
2020/12/18 04:38:39;;;;;;;4.17;3.77;;;5.10;99.90;;;;;;4996541;28;20509;-76
2020/12/18 04:41:05;;;;;;;11.67;4.37;;;5.10;99.90;;;;;;4996329;28;20451;-76
2020/12/18 04:43:31;;;;;;;11.83;4.10;;;5.10;99.90;;;;;;4996017;28;20334;-75
2020/12/18 04:46:00;;;;;;;6.38;4.63;;;5.10;99.90;;;;;;4996222;28;20195;-76
2020/12/18 04:48:27;;;;;;;6.63;3.95;;;5.00;99.90;;;;;;4996201;28;20199;-76
2020/12/18 04:50:57;;;;;;;6.43;3.88;;;5.00;99.90;;;;;;4996558;28;20210;-75
2020/12/18 04:53:32;;;;;;;16.90;6.68;;;5.00;99.90;;;;;;4996038;28;20262;-76
2020/12/18 04:56:06;;;;;;;19.00;3.95;;;5.10;99.90;;;;;;4996139;28;20203;-76
2020/12/18 04:58:32;;;;;;;8.70;4.30;;;5.10;99.90;;;;;;4996530;28;20258;-76
2020/12/18 05:00:59;;;;;;;9.10;3.95;;;5.00;99.90;;;;;;4994792;28;20195;-76
2020/12/18 05:03:26;;;;;;;7.65;4.43;;;5.00;99.90;;;;;;4994577;28;20183;-75
2020/12/18 05:05:51;;;;;;;16.58;4.38;;;5.10;99.90;;;;;;4995930;28;20180;-75
2020/12/18 05:08:17;;;;;;;5.70;3.53;;;5.00;99.90;;;;;;4996377;28;20186;-75
2020/12/18 05:10:42;;;;;;;5.40;3.30;;;4.90;99.90;;;;;;4996161;28;20700;-75
2020/12/18 05:13:08;;;;;;;16.13;4.23;;;5.00;99.90;;;;;;4995636;28;20656;-76
2020/12/18 05:15:34;;;;;;;6.70;4.53;;;5.00;99.90;;;;;;4995934;28;20253;-76
2020/12/18 05:18:00;;;;;;;5.78;3.80;;;5.10;99.90;;;;;;4995786;28;20203;-76
2020/12/18 05:20:29;;;;;;;5.90;3.97;;;5.10;99.90;;;;;;4994561;28;20223;-75
2020/12/18 05:22:54;;;;;;;10.65;4.25;;;5.10;99.90;;;;;;4995570;28;20172;-75
2020/12/18 05:25:20;;;;;;;6.03;4.70;;;5.10;99.90;;;;;;4995635;28;20171;-75
2020/12/18 05:27:49;;;;;;;6.90;4.00;;;5.10;99.90;;;;;;4995538;28;20546;-76
2020/12/18 05:30:21;;;;;;;9.15;4.18;;;5.00;99.90;;;;;;4995386;28;20505;-76
2020/12/18 05:32:52;;;;;;;7.75;3.80;;;5.10;99.90;;;;;;4995243;28;20175;-76
2020/12/18 05:35:18;;;;;;;9.48;4.28;;;5.00;99.90;;;;;;4995919;28;20559;-76
2020/12/18 05:37:44;;;;;;;5.53;4.37;;;5.00;99.90;;;;;;4995154;28;20176;-76
2020/12/18 05:40:10;;;;;;;5.80;3.40;;;5.00;99.90;;;;;;4994966;28;20176;-75
2020/12/18 05:42:43;;;;;;;4.87;3.57;;;5.10;99.90;;;;;;4995038;28;20534;-76
2020/12/18 05:45:17;;;;;;;11.00;4.20;;;5.10;99.90;;;;;;4995415;28;20315;-76
2020/12/18 05:47:54;;;;;;;9.43;4.60;;;5.00;99.90;;;;;;4995269;28;20242;-75
2020/12/18 05:50:20;;;;;;;5.88;3.33;;;5.10;99.90;;;;;;4995035;28;20556;-76
2020/12/18 05:53:00;;;;;;;9.50;3.75;;;5.00;99.90;;;;;;4994865;28;20191;-75
2020/12/18 05:55:25;;;;;;;4.35;3.30;;;5.10;99.90;;;;;;4995079;28;20199;-76
2020/12/18 05:57:54;;;;;;;10.77;3.87;;;5.00;99.90;;;;;;4995076;28;20174;-76
2020/12/18 06:00:22;;;;;;;7.68;3.38;;;5.00;99.90;;;;;;4994967;28;20175;-75
2020/12/18 06:03:00;;;;;;;6.82;3.65;;;5.00;99.90;;;;;;4994928;28;20178;-76
2020/12/18 06:05:26;;;;;;;4.97;3.58;;;5.00;99.90;;;;;;4995027;28;20266;-75
2020/12/18 06:07:53;;;;;;;5.18;3.70;;;5.00;99.90;;;;;;4994991;28;20172;-77
2020/12/18 06:10:25;;;;;;;7.60;4.15;;;5.00;99.90;;;;;;4994709;28;20286;-76
2020/12/18 06:13:01;;;;;;;6.97;3.88;;;5.00;99.90;;;;;;4994599;28;20182;-76
2020/12/18 06:15:26;;;;;;;5.38;4.00;;;5.00;99.90;;;;;;4994766;28;20195;-75
2020/12/18 06:17:54;;;;;;;5.77;4.03;;;5.00;99.90;;;;;;4994770;28;20194;-75
2020/12/18 06:20:20;;;;;;;6.63;4.70;;;4.90;99.90;;;;;;4994561;28;20529;-74
2020/12/18 06:23:00;;;;;;;9.68;4.70;;;4.90;99.90;;;;;;4994262;28;20702;-76
2020/12/18 06:25:26;;;;;;;7.70;4.65;;;4.90;99.90;;;;;;4994677;28;20202;-76
2020/12/18 06:28:03;;;;;;;7.40;4.82;;;5.00;99.90;;;;;;4994589;28;20246;-75
2020/12/18 06:30:29;;;;;;;7.85;4.47;;;5.00;99.90;;;;;;4994342;28;20191;-76
2020/12/18 06:32:56;;;;;;;9.02;4.47;;;5.00;99.90;;;;;;4992446;28;20290;-75
2020/12/18 06:35:30;;;;;;;14.27;4.88;;;5.00;99.90;;;;;;4994351;28;20203;-76
2020/12/18 06:37:58;;;;;;;10.70;4.10;;;4.90;99.90;;;;;;4994394;28;20240;-76
2020/12/18 06:40:29;;;;;;;7.00;3.90;;;4.90;99.90;;;;;;4994095;28;20164;-76
2020/12/18 06:42:56;;;;;;;7.03;4.20;;;5.00;99.90;;;;;;4993969;28;20195;-75
2020/12/18 06:45:22;;;;;;;8.65;3.95;;;5.00;99.90;;;;;;4994218;28;20294;-76
2020/12/18 06:47:47;;;;;;;9.15;3.65;;;5.00;99.90;;;;;;4993718;28;20177;-75
2020/12/18 06:50:15;;;;;;;7.40;3.93;;;5.00;99.90;;;;;;4994025;28;20404;-77
2020/12/18 06:52:42;;;;;;;9.25;3.88;;;5.00;99.90;;;;;;4993810;28;20555;-75
2020/12/18 06:55:10;;;;;;;3.55;2.83;;;5.00;99.90;;;;;;4994113;28;20195;-76
2020/12/18 06:57:36;;;;;;;10.25;4.43;;;5.00;99.90;;;;;;5007827;28;20269;-75
2020/12/18 07:00:20;;;;;;;9.20;3.28;;;5.00;99.90;;;;;;5013568;28;20228;-75
2020/12/18 07:02:46;;;;;;;5.97;3.70;;;5.00;99.90;;;;;;5013111;28;20198;-75
2020/12/18 07:05:33;;;;;;;3.87;3.20;;;5.00;99.90;;;;;;5013684;28;20210;-75
2020/12/18 07:08:01;;;;;;;9.23;3.65;;;5.00;99.90;;;;;;5007811;28;20193;-75
2020/12/18 07:10:28;;;;;;;5.28;3.35;;;4.90;99.90;;;;;;5002193;28;20231;-76
2020/12/18 07:12:56;;;;;;;9.38;3.33;;;4.90;99.90;;;;;;5001121;28;20669;-75
2020/12/18 07:15:22;;;;;;;4.65;3.15;;;5.00;99.90;;;;;;5004820;28;20202;-76
2020/12/18 07:17:51;;;;;;;5.43;3.80;;;5.00;99.90;;;;;;4995254;28;20640;-75
2020/12/18 07:20:16;;;;;;;3.75;3.10;;;5.00;99.90;;;;;;4993479;28;20172;-76
2020/12/18 07:22:42;;;;;;;5.20;2.90;;;4.90;99.90;;;;;;4993544;28;20238;-76
2020/12/18 07:25:12;;;;;;;8.30;3.10;;;4.90;99.90;;;;;;4993722;28;20179;-75
2020/12/18 07:27:38;;;;;;;5.95;2.90;;;4.90;99.90;;;;;;4993836;28;20179;-77
2020/12/18 07:30:11;;;;;;;7.45;3.70;;;4.90;99.90;;;;;;4993722;28;20171;-77
2020/12/18 07:32:37;;;;;;;7.80;3.20;;;4.80;99.90;;;;;;4993184;28;20167;-76
2020/12/18 07:35:05;;;;;;;8.17;3.60;;;4.90;99.90;;;;;;4993462;28;20223;-77
2020/12/18 07:37:33;;;;;;;3.22;2.63;;;4.90;99.90;;;;;;4993660;28;20176;-75
2020/12/18 07:39:59;;;;;;;4.10;2.92;;;4.90;99.90;;;;;;4993705;28;20632;-76
2020/12/18 07:42:25;;;;;;;5.47;3.47;;;4.90;99.90;;;;;;4993265;28;20206;-75
2020/12/18 07:45:08;;;;;;;6.17;3.80;;;4.90;99.90;;;;;;4993365;28;20652;-75
2020/12/18 07:47:38;;;;;;;6.38;3.13;;;5.00;99.90;;;;;;4993425;28;20183;-76
2020/12/18 07:50:08;;;;;;;3.78;3.05;;;5.10;99.90;;;;;;4993456;28;20191;-76
2020/12/18 07:52:35;;;;;;;3.80;2.80;;;5.00;99.90;;;;;;4993297;28;20178;-75
2020/12/18 07:55:00;;;;;;;7.70;3.40;;;5.00;99.90;;;;;;4993450;28;20206;-74
2020/12/18 07:57:26;;;;;;;9.97;3.63;;;5.10;99.90;;;;;;4993641;28;20250;-76
2020/12/18 08:00:10;;;;;;;7.80;3.17;;;5.10;99.90;;;;;;4995008;28;20413;-75
2020/12/18 08:02:38;;;;;;;10.30;4.10;;;5.30;99.90;;;;;;4996918;28;20406;-76
2020/12/18 08:05:04;;;;;;;11.35;4.20;;;5.30;99.90;;;;;;4997182;28;20181;-76
2020/12/18 08:07:31;;;;;;;7.30;3.47;;;5.40;99.90;;;;;;4997138;28;20510;-76
2020/12/18 08:09:58;;;;;;;3.20;2.90;;;5.40;99.90;;;;;;4997250;28;20174;-76
2020/12/18 08:12:25;;;;;;;6.25;4.45;;;5.40;99.90;;;;;;4996683;28;20203;-74
2020/12/18 08:14:50;;;;;;;7.28;3.70;;;5.50;99.90;;;;;;4997087;28;20218;-75
2020/12/18 08:17:25;;;;;;;6.97;5.07;;;5.50;99.90;;;;;;4996878;28;20573;-75
2020/12/18 08:19:52;;;;;;;8.65;3.90;;;5.60;99.90;;;;;;4996993;28;20530;-75
2020/12/18 08:22:19;;;;;;;7.43;3.97;;;5.70;99.90;;;;;;4996465;28;20294;-74
2020/12/18 08:24:47;;;;;;;8.18;3.88;;;5.80;99.90;;;;;;4996764;28;20202;-73
2020/12/18 08:27:21;;;;;;;9.02;5.07;;;5.90;99.90;;;;;;4996821;28;20179;-76
2020/12/18 08:29:48;;;;;;;6.50;4.00;;;5.90;99.90;;;;;;4996994;28;20183;-75
2020/12/18 08:32:22;;;;;;;7.65;3.80;;;6.10;99.90;;;;;;4996330;28;20281;-74
2020/12/18 08:34:49;;;;;;;14.43;4.70;;;6.20;99.90;;;;;;4996489;28;20611;-76
2020/12/18 08:37:21;;;;;;;5.05;4.00;;;6.30;99.90;;;;;;4996417;28;20180;-76
2020/12/18 08:39:47;;;;;;;8.52;4.25;;;6.40;99.90;;;;;;4996503;28;20178;-74
2020/12/18 08:42:13;;;;;;;6.70;3.73;;;6.50;99.90;;;;;;4996170;28;20680;-76
2020/12/18 08:44:42;;;;;;;9.48;3.75;;;6.50;99.90;;;;;;4996429;28;20181;-74
2020/12/18 08:47:24;;;;;;;9.65;4.53;;;6.60;99.90;;;;;;4996436;28;20180;-75
2020/12/18 08:49:51;;;;;;;6.40;3.92;;;6.70;99.90;;;;;;4994998;28;20221;-75
2020/12/18 08:52:35;;;;;;;8.35;4.15;;;6.80;99.90;;;;;;4995911;28;20551;-75
2020/12/18 08:55:03;;;;;;;5.53;3.78;;;6.80;99.90;;;;;;4996212;28;20289;-75
2020/12/18 08:57:32;;;;;;;6.55;3.60;;;6.90;99.90;;;;;;4996238;28;20176;-75
2020/12/18 09:00:17;;;;;;;11.65;3.90;;;7.00;99.90;;;;;;4996095;28;20639;-75
2020/12/18 09:02:47;;;;;;;5.00;3.72;;;7.10;99.90;;;;;;4995781;28;20164;-76
2020/12/18 09:05:17;;;;;;;9.70;4.07;;;7.10;99.90;;;;;;4996163;28;20193;-75
2020/12/18 09:07:47;;;;;;;6.18;3.95;;;7.20;99.90;;;;;;4996055;28;20202;-75
2020/12/18 09:10:12;;;;;;;5.38;4.00;;;7.30;99.90;;;;;;4995657;28;20187;-74
2020/12/18 09:12:43;;;;;;;5.90;3.60;;;7.40;99.90;;;;;;4995610;28;20185;-75
2020/12/18 09:15:18;;;;;;;10.43;4.78;;;7.50;99.90;;;;;;4996098;28;20209;-74
2020/12/18 09:17:44;;;;;;;5.28;3.70;;;7.50;99.90;;;;;;4996056;28;20179;-75
2020/12/18 09:20:22;;;;;;;5.90;3.70;;;7.60;99.90;;;;;;4995772;28;20540;-74
2020/12/18 09:23:05;;;;;;;8.63;3.80;;;7.60;99.90;;;;;;4995392;28;20270;-75
2020/12/18 09:25:41;;;;;;;6.88;4.00;;;7.70;99.90;;;;;;4996011;28;20175;-75
2020/12/18 09:28:13;;;;;;;9.88;3.90;;;7.70;99.90;;;;;;4995711;28;20221;-75
2020/12/18 09:30:38;;;;;;;8.10;3.90;;;7.80;99.90;;;;;;4995645;28;20569;-75
2020/12/18 09:33:11;;;;;;;7.40;4.03;;;7.90;99.90;;;;;;4995162;28;20267;-76
2020/12/18 09:35:37;;;;;;;4.90;3.92;;;7.90;99.90;;;;;;4995311;28;20187;-75
2020/12/18 09:38:03;;;;;;;6.35;3.92;;;8.00;99.90;;;;;;4995420;28;20259;-75
2020/12/18 09:40:29;;;;;;;5.40;3.60;;;8.00;99.90;;;;;;4995451;28;20226;-74
2020/12/18 09:42:55;;;;;;;6.97;3.35;;;8.00;99.90;;;;;;4996928;28;20541;-76
2020/12/18 09:45:21;;;;;;;7.57;3.90;;;8.00;99.90;;;;;;4998303;28;20183;-75
2020/12/18 09:47:47;;;;;;;6.05;4.50;;;8.00;99.90;;;;;;4996119;28;20180;-75
2020/12/18 09:50:14;;;;;;;6.47;3.90;;;8.00;99.90;;;;;;4995229;28;20198;-76
2020/12/18 09:52:39;;;;;;;7.13;3.80;;;8.00;99.90;;;;;;4994947;28;20193;-75
2020/12/18 09:55:05;;;;;;;7.13;4.97;;;8.10;99.90;;;;;;4995079;28;20652;-73
2020/12/18 09:57:30;;;;;;;9.50;4.27;;;8.00;99.90;;;;;;4995134;28;20175;-75
2020/12/18 09:59:56;;;;;;;8.07;4.33;;;8.00;99.90;;;;;;4995106;28;20171;-75
2020/12/18 10:02:21;;;;;;;5.23;3.70;;;8.00;99.90;;;;;;4994547;28;20198;-75
2020/12/18 10:04:47;;;;;;;5.67;3.93;;;8.00;99.90;;;;;;4994966;28;20194;-75
2020/12/18 10:07:13;;;;;;;4.83;3.83;;;8.00;99.90;;;;;;4995190;28;20176;-75
2020/12/18 10:09:38;;;;;;;5.60;3.80;;;8.00;99.90;;;;;;4994877;28;20582;-75
2020/12/18 10:12:06;;;;;;;8.03;3.40;;;8.10;99.90;;;;;;4994437;28;20206;-75
2020/12/18 10:14:32;;;;;;;7.07;3.25;;;8.00;99.90;;;;;;4994735;28;20241;-76
2020/12/18 10:16:58;;;;;;;4.60;3.37;;;8.10;99.90;;;;;;4994905;28;20608;-76
2020/12/18 10:19:23;;;;;;;4.80;3.43;;;8.10;99.90;;;;;;4994788;28;20175;-75
2020/12/18 10:21:49;;;;;;;5.57;3.57;;;8.20;99.90;;;;;;4993971;28;20270;-74
2020/12/18 10:24:15;;;;;;;4.87;3.33;;;8.20;99.90;;;;;;4994169;28;20175;-75
2020/12/18 10:26:40;;;;;;;4.65;3.42;;;8.40;99.90;;;;;;4994629;28;20640;-75
2020/12/18 10:29:06;;;;;;;3.87;3.20;;;8.60;99.90;;;;;;4994611;28;20180;-75
2020/12/18 10:31:32;;;;;;;3.80;3.30;;;8.70;99.90;;;;;;4994696;28;20553;-75
2020/12/18 10:33:57;;;;;;;3.07;2.67;;;8.80;99.90;;;;;;4994263;28;20262;-74
2020/12/18 10:36:23;;;;;;;5.10;2.97;;;9.10;99.90;;;;;;4994382;28;20226;-74
2020/12/18 10:38:48;;;;;;;5.90;2.63;;;9.60;99.90;;;;;;4995161;28;20183;-75
2020/12/18 10:41:14;;;;;;;6.67;3.03;;;9.80;99.90;;;;;;4994532;28;20270;-75
2020/12/18 10:43:39;;;;;;;4.90;2.60;;;9.90;99.90;;;;;;4994075;28;20167;-76
2020/12/18 10:46:05;;;;;;;4.37;3.00;;;10.60;99.90;;;;;;4994278;28;20228;-76
2020/12/18 10:48:33;;;;;;;5.50;2.17;;;11.00;99.90;;;;;;4993941;28;20206;-75
2020/12/18 10:51:00;;;;;;;6.83;2.40;;;11.00;99.90;;;;;;4994183;28;20191;-75
2020/12/18 10:53:26;;;;;;;4.77;2.47;;;11.10;99.90;;;;;;4993841;28;20950;-75
2020/12/18 10:55:51;;;;;;;2.90;2.33;;;11.30;99.90;;;;;;4994348;28;20474;-76
2020/12/18 10:58:17;;;;;;;4.00;2.10;;;11.50;99.90;;;;;;4993860;28;20171;-76
2020/12/18 11:00:43;;;;;;;3.43;2.40;;;11.50;99.90;;;;;;4998156;28;20270;-76
2020/12/18 11:03:09;;;;;;;2.80;2.07;;;11.40;99.90;;;;;;5010833;28;20588;-75
2020/12/18 11:05:35;;;;;;;7.27;3.17;;;11.20;99.90;;;;;;5011931;28;20421;-75
2020/12/18 11:08:00;;;;;;;6.33;2.20;;;11.00;99.90;;;;;;5011594;28;20659;-76
2020/12/18 11:10:26;;;;;;;4.30;2.37;;;11.20;99.90;;;;;;5011572;28;20659;-75
2020/12/18 11:12:51;;;;;;;5.40;2.50;;;11.50;99.90;;;;;;5011913;28;20182;-77
2020/12/18 11:15:17;;;;;;;2.37;2.00;;;11.80;99.90;;;;;;5011069;28;20197;-78
2020/12/18 11:17:43;;;;;;;4.27;2.60;;;11.50;99.90;;;;;;5011169;28;20574;-76
2020/12/18 11:20:09;;;;;;;3.20;2.67;;;11.60;99.90;;;;;;5011549;28;20174;-76
2020/12/18 11:22:35;;;;;;;4.77;2.30;;;11.90;99.90;;;;;;5010584;28;20851;-75
2020/12/18 11:25:01;;;;;;;3.00;2.40;;;12.20;99.90;;;;;;5010755;28;20186;-77
2020/12/18 11:27:26;;;;;;;4.40;2.37;;;12.20;99.90;;;;;;5011679;28;20186;-75
2020/12/18 11:29:52;;;;;;;4.47;2.87;;;12.20;99.90;;;;;;5011181;28;20198;-77
2020/12/18 11:32:18;;;;;;;2.90;2.60;;;12.20;99.90;;;;;;5011281;28;20203;-76
2020/12/18 11:34:43;;;;;;;3.50;2.23;;;12.50;99.90;;;;;;5015097;28;20209;-75
2020/12/18 11:37:09;;;;;;;5.20;2.50;;;12.70;99.90;;;;;;5014944;28;21179;-76
2020/12/18 11:39:35;;;;;;;3.73;2.73;;;12.60;99.90;;;;;;5015898;28;20186;-76
2020/12/18 11:42:01;;;;;;;3.27;2.37;;;12.80;99.90;;;;;;5015273;28;20209;-75
2020/12/18 11:44:26;;;;;;;3.17;2.27;;;13.40;99.90;;;;;;5015176;28;20266;-78
2020/12/18 11:46:52;;;;;;;4.20;2.63;;;13.50;99.90;;;;;;5015290;28;20522;-74
2020/12/18 11:49:17;;;;;;;4.40;2.40;;;13.10;99.90;;;;;;5015477;28;20202;-77
2020/12/18 11:51:43;;;;;;;3.50;2.63;;;13.30;99.90;;;;;;5014937;28;20199;-75
2020/12/18 11:54:08;;;;;;;3.10;2.20;;;13.40;99.90;;;;;;5015195;28;20175;-76
2020/12/18 11:56:34;;;;;;;3.27;2.30;;;13.20;99.90;;;;;;5014911;28;20266;-77
2020/12/18 11:59:00;;;;;;;4.77;3.70;;;13.60;99.90;;;;;;5015228;28;20183;-77
2020/12/18 12:01:26;;;;;;;4.80;2.47;;;13.60;99.90;;;;;;5009442;28;20658;-76
2020/12/18 12:03:53;;;;;;;4.97;2.20;;;13.20;99.90;;;;;;5011028;28;20241;-77
2020/12/18 12:06:19;;;;;;;7.90;2.70;;;13.20;99.90;;;;;;5015170;28;20417;-75
2020/12/18 12:08:45;;;;;;;4.83;2.53;;;13.50;99.90;;;;;;5014352;28;20421;-75
2020/12/18 12:11:17;;;;;;;4.80;2.80;;;13.90;99.90;;;;;;5014718;28;20495;-75
2020/12/18 12:13:43;;;;;;;3.80;2.63;;;14.30;99.90;;;;;;5014488;28;20491;-74
2020/12/18 12:16:11;;;;;;;7.17;2.67;;;14.50;99.90;;;;;;5014098;28;20453;-74
2020/12/18 12:18:37;;;;;;;3.30;2.00;;;14.40;99.90;;;;;;5015113;28;20492;-74
2020/12/18 12:21:02;;;;;;;2.30;1.90;;;14.50;99.90;;;;;;5014558;28;20915;-74
2020/12/18 12:23:28;;;;;;;4.33;2.37;;;14.50;99.90;;;;;;5013891;28;20693;-74
2020/12/18 12:25:53;;;;;;;2.37;1.60;;;14.40;99.90;;;;;;5014798;28;20191;-75
2020/12/18 12:28:19;;;;;;;1.33;1.23;;;14.20;99.90;;;;;;5014844;28;20647;-74
2020/12/18 12:30:44;;;;;;;2.03;1.83;;;14.10;99.90;;;;;;5014111;28;20695;-74
2020/12/18 12:33:10;;;;;;;2.00;1.60;;;14.00;99.90;;;;;;5014266;28;20274;-74
2020/12/18 12:35:37;;;;;;;3.30;1.63;;;14.00;99.90;;;;;;5011390;28;20203;-74
2020/12/18 12:38:06;;;;;;;4.93;1.70;;;14.10;99.90;;;;;;4998190;28;20218;-74
2020/12/18 12:40:32;;;;;;;3.27;1.73;;;14.20;99.90;;;;;;4995058;28;20814;-75
2020/12/18 12:42:58;;;;;;;3.27;1.70;;;14.20;99.90;;;;;;4994346;28;20423;-74
2020/12/18 12:45:23;;;;;;;2.50;1.77;;;14.40;99.90;;;;;;4993444;28;20430;-75
2020/12/18 12:47:49;;;;;;;4.07;1.97;;;14.30;99.90;;;;;;4994817;28;20191;-75
2020/12/18 12:50:15;;;;;;;2.10;1.40;;;14.10;99.90;;;;;;4994734;28;20286;-74
2020/12/18 12:52:40;;;;;;;2.03;1.57;;;14.50;99.90;;;;;;4993524;28;20187;-74
2020/12/18 12:55:06;;;;;;;1.53;1.30;;;14.40;99.90;;;;;;4994705;28;20259;-74